METAR Formatted Surface Weather Observation
Issued by NWS

Home | Current Version | Previous Version | Text Only | Print | Product List | Glossary On
Versions: 1 2 3 4 5 6 7 8 9 10 11 12 13 14 15 16 17 18 19 20 21 22 23 24 25 26 27 28
000
SAUS44 KMOB 181358
MTR79J
METAR K79J 181356Z AUTO 09003KT 10SM BKN004 OVC011 20/17 A2997 RMK
AO2 RAE15 SLP145 P0000 T02000172 $



USA.gov is the U.S. government's official web portal to all federal, state and local government web resources and services.